createdAt,value
2019-05-30T00:00:12.532Z,100390.91
2019-05-30T00:02:27.488Z,100390.80
2019-05-30T00:04:54.318Z,100390.27
2019-05-30T00:07:20.983Z,100389.81
2019-05-30T00:09:47.797Z,100383.07
2019-05-30T00:12:14.608Z,100387.48
2019-05-30T00:14:41.314Z,100380.67
2019-05-30T00:17:07.917Z,100383.43
2019-05-30T00:19:34.702Z,100385.97
2019-05-30T00:22:01.585Z,100380.90
2019-05-30T00:24:30.081Z,100385.02
2019-05-30T00:26:58.413Z,100394.09
2019-05-30T00:29:25.371Z,100389.37
2019-05-30T00:31:52.016Z,100383.16
2019-05-30T00:34:19.489Z,100392.01
2019-05-30T00:36:46.230Z,100390.52
2019-05-30T00:39:12.996Z,100393.35
2019-05-30T00:41:39.578Z,100378.08
2019-05-30T00:44:06.405Z,100381.81
2019-05-30T00:46:33.248Z,100381.08
2019-05-30T09:17:39.319Z,100324.94
2019-05-30T09:20:07.789Z,100336.50
2019-05-30T09:22:35.016Z,100326.20
2019-05-30T09:25:01.806Z,100324.13
2019-05-30T09:27:28.920Z,100325.94
2019-05-30T09:29:56.207Z,100326.03
2019-05-30T09:32:23.055Z,100326.09
2019-05-30T09:34:51.914Z,100314.97
2019-05-30T09:37:18.615Z,100335.14
2019-05-30T09:39:45.830Z,100306.38
2019-05-30T09:42:12.620Z,100323.74
2019-05-30T09:44:40.464Z,100326.56
2019-05-30T09:47:07.749Z,100317.87
2019-05-30T09:49:34.927Z,100308.38
2019-05-30T09:52:01.712Z,100332.34
2019-05-30T09:54:28.433Z,100333.99
2019-05-30T09:56:57.363Z,100348.30
2019-05-30T09:59:23.852Z,100328.22
2019-05-30T10:01:50.623Z,100342.30
2019-05-30T10:04:17.412Z,100337.77
2019-05-30T10:06:44.670Z,100344.48
2019-05-30T10:09:11.567Z,100342.88
2019-05-30T10:11:38.372Z,100336.98
2019-05-30T10:14:05.266Z,100345.19
2019-05-30T10:16:32.090Z,100350.30
2019-05-30T10:18:58.930Z,100345.34
2019-05-30T10:21:25.599Z,100353.41
2019-05-30T10:23:53.692Z,100362.94
2019-05-30T10:26:20.508Z,100364.52
2019-05-30T10:28:49.137Z,100352.55
2019-05-30T10:31:16.414Z,100348.95
2019-05-30T10:33:44.293Z,100361.42
2019-05-30T10:36:14.712Z,100355.50
2019-05-30T10:38:40.966Z,100356.00
2019-05-30T10:41:07.942Z,100352.73
2019-05-30T10:43:34.530Z,100349.27
2019-05-30T10:46:04.142Z,100345.75
2019-05-30T10:48:30.967Z,100333.19
2019-05-30T10:51:01.153Z,100324.07
2019-05-30T10:53:27.855Z,100304.89
2019-05-30T10:55:54.953Z,100347.79
2019-05-30T10:58:22.389Z,100332.36
2019-05-30T11:00:55.563Z,100344.10
2019-05-30T11:03:23.878Z,100329.58
2019-05-30T11:06:01.762Z,100341.08
2019-05-30T11:08:30.836Z,100335.31
2019-05-30T11:10:57.501Z,100340.75
2019-05-30T11:13:24.311Z,100322.17
2019-05-30T11:15:53.424Z,100351.07
2019-05-30T11:18:20.863Z,100334.65
2019-05-30T11:21:07.194Z,100337.73
2019-05-30T11:23:33.869Z,100335.48
2019-05-30T11:26:00.674Z,100336.66
2019-05-30T11:28:27.465Z,100336.09
2019-05-30T11:30:54.813Z,100329.36
2019-05-30T11:33:22.820Z,100332.14
2019-05-30T11:35:49.490Z,100336.48
2019-05-30T11:38:16.202Z,100350.01
2019-05-30T11:40:42.896Z,100347.44
2019-05-30T11:43:09.740Z,100327.14
2019-05-30T11:45:36.555Z,100331.36
2019-05-30T11:48:03.379Z,100326.82
2019-05-30T11:50:30.414Z,100339.13
2019-05-30T11:52:57.959Z,100334.66
2019-05-30T11:55:24.889Z,100335.78
2019-05-30T11:57:52.060Z,100346.55
2019-05-30T12:00:19.334Z,100332.68
2019-05-30T12:02:46.153Z,100334.09
2019-05-30T12:05:13.486Z,100319.75
2019-05-30T12:07:40.177Z,100340.92
2019-05-30T12:10:07.050Z,100345.28
2019-05-30T12:12:33.898Z,100344.44
2019-05-30T12:15:01.662Z,100324.12
2019-05-30T12:17:28.682Z,100341.23
2019-05-30T12:19:56.029Z,100358.69
2019-05-30T12:22:22.935Z,100346.50
2019-05-30T12:24:49.655Z,100354.39
2019-05-30T12:27:16.444Z,100343.67
2019-05-30T12:29:43.127Z,100347.38
2019-05-30T12:32:09.811Z,100361.77
2019-05-30T12:34:38.737Z,100351.23
2019-05-30T12:37:05.507Z,100354.52
2019-05-30T12:39:32.205Z,100352.23
2019-05-30T12:41:59.091Z,100364.09
2019-05-30T12:44:25.946Z,100354.50
2019-05-30T12:46:53.372Z,100354.52
2019-05-30T12:49:20.366Z,100361.25
2019-05-30T12:51:47.144Z,100356.30
2019-05-30T12:54:13.823Z,100360.89
2019-05-30T12:56:40.487Z,100349.14
2019-05-30T12:59:07.286Z,100357.20
2019-05-30T13:01:33.967Z,100345.72
2019-05-30T13:04:01.118Z,100354.28
2019-05-30T13:06:27.844Z,100349.41
2019-05-30T13:08:55.042Z,100355.16
2019-05-30T13:11:23.326Z,100358.47
2019-05-30T13:13:50.133Z,100354.94
2019-05-30T13:16:16.957Z,100364.74
2019-05-30T13:18:43.957Z,100358.76
2019-05-30T13:21:11.106Z,100355.16
2019-05-30T13:23:37.892Z,100372.12
2019-05-30T13:26:05.896Z,100380.36
2019-05-30T13:28:32.799Z,100377.86
2019-05-30T13:31:00.292Z,100377.55
2019-05-30T13:33:27.013Z,100374.77
2019-05-30T13:35:54.147Z,100368.20
2019-05-30T13:38:26.334Z,100375.73
2019-05-30T13:40:51.953Z,100372.77
2019-05-30T13:43:18.624Z,100383.64
2019-05-30T13:45:45.478Z,100379.87
2019-05-30T13:48:12.238Z,100382.19
2019-05-30T13:50:39.063Z,100383.48
2019-05-30T13:53:07.329Z,100381.19
2019-05-30T13:55:35.007Z,100361.28
2019-05-30T13:58:02.087Z,100373.77
2019-05-30T14:00:31.663Z,100382.98
2019-05-30T14:02:58.424Z,100383.79
2019-05-30T14:05:25.564Z,100379.87
2019-05-30T14:07:52.323Z,100387.09
2019-05-30T14:10:19.512Z,100386.42
2019-05-30T14:12:46.287Z,100384.62
2019-05-30T14:15:14.574Z,100385.94
2019-05-30T14:17:41.482Z,100396.13
2019-05-30T14:20:11.221Z,100368.52
2019-05-30T14:22:38.432Z,100387.25
2019-05-30T14:25:08.043Z,100389.37
2019-05-30T14:27:34.811Z,100399.88
2019-05-30T14:30:03.090Z,100405.99
2019-05-30T14:32:29.916Z,100389.87
2019-05-30T14:34:56.720Z,100380.98
2019-05-30T14:37:26.513Z,100387.11
2019-05-30T14:39:53.314Z,100368.69
2019-05-30T14:42:20.196Z,100385.28
2019-05-30T14:44:46.856Z,100389.54
2019-05-30T14:47:13.559Z,100384.45
2019-05-30T14:49:40.393Z,100383.15
2019-05-30T14:52:08.847Z,100381.67
2019-05-30T14:54:35.533Z,100387.09
2019-05-30T14:59:42.934Z,100386.42
2019-05-30T15:02:11.210Z,100386.92
2019-05-30T15:04:38.200Z,100397.63
2019-05-30T15:07:05.352Z,100388.72
2019-05-30T15:09:32.857Z,100397.80
2019-05-30T15:11:59.955Z,100385.92
2019-05-30T15:14:26.633Z,100386.60
2019-05-30T15:16:53.431Z,100392.69
2019-05-30T15:19:20.223Z,100382.13
2019-05-30T15:21:47.215Z,100383.50
2019-05-30T15:24:14.355Z,100380.61
2019-05-30T15:26:41.201Z,100385.86
2019-05-30T15:29:08.168Z,100384.45
2019-05-30T15:31:34.994Z,100385.27
2019-05-30T15:34:01.673Z,100383.27
2019-05-30T15:36:28.724Z,100388.25
2019-05-30T15:38:55.291Z,100380.67
2019-05-30T15:41:22.080Z,100378.84
2019-05-30T15:43:48.872Z,100386.63
2019-05-30T15:46:15.917Z,100379.28
2019-05-30T15:48:42.822Z,100363.39
2019-05-30T15:51:10.429Z,100375.72
2019-05-30T15:53:38.239Z,100379.69
2019-05-30T15:56:05.023Z,100386.77
2019-05-30T15:58:31.733Z,100382.67
2019-05-30T16:00:58.503Z,100387.55
2019-05-30T16:03:25.101Z,100382.67
2019-05-30T16:05:53.076Z,100381.83
2019-05-30T16:08:20.960Z,100385.28
2019-05-30T16:10:48.114Z,100373.09
2019-05-30T16:13:15.318Z,100375.23
2019-05-30T16:15:44.503Z,100371.97
2019-05-30T16:18:11.604Z,100375.44
2019-05-30T16:20:38.488Z,100368.74
2019-05-30T16:23:05.353Z,100366.52
2019-05-30T16:25:32.125Z,100372.30
2019-05-30T16:27:58.921Z,100370.83
2019-05-30T16:30:27.153Z,100372.30
2019-05-30T16:32:54.101Z,100373.95
2019-05-30T16:35:22.158Z,100376.83
2019-05-30T16:37:48.908Z,100381.67
2019-05-30T16:40:16.429Z,100375.08
2019-05-30T16:42:43.752Z,100380.66
2019-05-30T16:45:18.710Z,100369.83
2019-05-30T16:47:42.812Z,100387.76
2019-05-30T16:50:10.526Z,100380.98
2019-05-30T16:52:37.354Z,100380.34
2019-05-30T16:55:05.477Z,100376.41
2019-05-30T16:57:32.268Z,100372.11
2019-05-30T16:59:59.091Z,100368.69
2019-05-30T17:02:26.953Z,100367.70
2019-05-30T17:04:53.883Z,100372.80
2019-05-30T17:07:21.527Z,100366.36
2019-05-30T17:09:50.616Z,100375.41
2019-05-30T17:12:17.524Z,100367.52
2019-05-30T17:14:44.183Z,100372.15
2019-05-30T17:17:11.277Z,100370.45
2019-05-30T17:19:39.440Z,100375.08
2019-05-30T17:22:06.513Z,100370.81
2019-05-30T17:24:33.510Z,100380.51
2019-05-30T17:27:00.230Z,100370.15
2019-05-30T17:29:27.719Z,100369.66
2019-05-30T17:31:54.607Z,100372.80
2019-05-30T17:34:21.841Z,100374.77
2019-05-30T17:36:49.224Z,100362.27
2019-05-30T17:39:18.812Z,100366.04
2019-05-30T17:41:46.705Z,100372.95
2019-05-30T17:44:13.496Z,100371.16
2019-05-30T17:46:40.298Z,100378.86
2019-05-30T17:49:07.306Z,100371.15
2019-05-30T17:51:34.437Z,100361.24
2019-05-30T17:54:01.324Z,100368.17
2019-05-30T17:56:28.277Z,100371.28
2019-05-30T17:58:55.117Z,100384.92
2019-05-30T18:01:22.240Z,100373.75
2019-05-30T18:03:49.871Z,100374.40
2019-05-30T18:06:16.677Z,100380.67
2019-05-30T18:08:43.369Z,100403.68
2019-05-30T18:11:10.195Z,100389.18
2019-05-30T18:13:36.988Z,100391.17
2019-05-30T18:16:03.800Z,100394.30
2019-05-30T18:18:31.385Z,100398.73
2019-05-30T18:20:58.689Z,100394.12
2019-05-30T18:23:26.050Z,100396.09
2019-05-30T18:25:54.583Z,100401.50
2019-05-30T18:28:23.622Z,100401.69
2019-05-30T18:30:50.560Z,100404.78
2019-05-30T18:33:17.269Z,100410.34
2019-05-30T18:35:44.431Z,100406.28
2019-05-30T18:38:11.229Z,100408.24
2019-05-30T18:40:38.000Z,100410.85
2019-05-30T18:43:04.801Z,100397.71
2019-05-30T18:45:36.790Z,100410.11
2019-05-30T18:48:03.594Z,100403.56
2019-05-30T18:50:31.624Z,100410.45
2019-05-30T18:52:58.505Z,100401.55
2019-05-30T18:55:28.554Z,100394.98
2019-05-30T18:57:55.357Z,100404.14
2019-05-30T19:00:22.141Z,100406.75
2019-05-30T19:02:48.810Z,100411.50
2019-05-30T19:05:16.510Z,100406.76
2019-05-30T19:07:43.210Z,100412.66
2019-05-30T19:10:10.005Z,100420.88
2019-05-30T19:12:36.783Z,100422.00
2019-05-30T19:15:27.184Z,100432.38
2019-05-30T19:17:53.579Z,100433.03
2019-05-30T19:20:22.745Z,100413.06
2019-05-30T19:22:49.515Z,100425.71
2019-05-30T19:25:16.333Z,100422.06
2019-05-30T19:27:43.148Z,100428.42
2019-05-30T19:30:11.409Z,100433.31
2019-05-30T19:32:38.495Z,100431.89
2019-05-30T19:35:07.483Z,100440.49
2019-05-30T19:37:35.428Z,100450.44
2019-05-30T19:40:02.351Z,100455.61
2019-05-30T19:42:29.333Z,100456.69
2019-05-30T19:45:00.405Z,100452.71
2019-05-30T19:47:28.560Z,100457.39
2019-05-30T19:49:55.911Z,100466.21
2019-05-30T19:52:22.699Z,100458.77
2019-05-30T19:54:49.487Z,100462.70
2019-05-30T19:57:16.194Z,100462.77
2019-05-30T19:59:43.035Z,100463.75
2019-05-30T20:02:09.811Z,100460.09
2019-05-30T20:04:36.682Z,100459.94
2019-05-30T20:07:03.457Z,100462.95
2019-05-30T20:09:30.488Z,100464.52
2019-05-30T20:12:03.849Z,100470.14
2019-05-30T20:14:26.042Z,100470.52
2019-05-30T20:16:52.818Z,100467.36
2019-05-30T20:19:19.619Z,100465.36
2019-05-30T20:21:46.397Z,100467.16
2019-05-30T20:24:13.191Z,100463.63
2019-05-30T20:26:40.668Z,100468.33
2019-05-30T20:29:07.519Z,100468.02
2019-05-30T20:31:35.583Z,100468.61
2019-05-30T20:34:02.433Z,100470.14
2019-05-30T20:36:30.406Z,100476.22
2019-05-30T20:38:57.204Z,100476.69
2019-05-30T20:41:23.873Z,100477.16
2019-05-30T20:43:50.659Z,100470.14
2019-05-30T20:46:23.127Z,100465.60
2019-05-30T20:48:46.015Z,100465.57
2019-05-30T20:51:21.108Z,100469.78
2019-05-30T20:53:41.654Z,100465.74
2019-05-30T20:56:08.432Z,100471.37
2019-05-30T20:58:35.533Z,100480.66
2019-05-30T21:01:02.642Z,100476.94
2019-05-30T21:03:29.438Z,100478.59
2019-05-30T21:05:56.891Z,100482.52
2019-05-30T21:08:23.661Z,100479.37
2019-05-30T21:11:12.269Z,100478.53
2019-05-30T21:13:44.288Z,100480.27
2019-05-30T21:16:15.971Z,100472.47
2019-05-30T21:18:44.389Z,100479.00
2019-05-30T21:21:11.337Z,100481.14
2019-05-30T21:23:38.309Z,100470.91
2019-05-30T21:26:05.180Z,100475.73
2019-05-30T21:28:31.954Z,100482.56
2019-05-30T21:30:58.543Z,100481.16
2019-05-30T21:33:25.334Z,100474.25
2019-05-30T21:35:52.021Z,100477.48
2019-05-30T21:38:18.841Z,100474.86
2019-05-30T21:40:46.577Z,100476.42
2019-05-30T21:43:13.299Z,100477.24
2019-05-30T21:45:40.437Z,100477.94
2019-05-30T21:48:07.170Z,100483.88
2019-05-30T21:50:34.240Z,100474.09
2019-05-30T21:53:01.338Z,100476.17
2019-05-30T21:55:30.264Z,100479.56
2019-05-30T21:57:57.058Z,100475.17
2019-05-30T22:00:51.056Z,100475.80
2019-05-30T22:03:17.906Z,100477.33
2019-05-30T22:05:45.857Z,100476.78
2019-05-30T22:08:13.562Z,100473.95
2019-05-30T22:10:41.272Z,100471.04
2019-05-30T22:13:09.755Z,100469.09
2019-05-30T22:15:36.686Z,100469.47
2019-05-30T22:21:46.016Z,100465.55
2019-05-30T22:24:12.982Z,100465.55
2019-05-30T22:26:39.787Z,100460.40
2019-05-30T22:29:06.592Z,100462.16
2019-05-30T22:31:33.395Z,100455.81
2019-05-30T22:34:00.164Z,100467.48
2019-05-30T22:36:26.957Z,100457.69
2019-05-30T22:38:53.719Z,100460.91
2019-05-30T22:41:20.507Z,100456.02
2019-05-30T22:43:48.244Z,100460.89
2019-05-30T22:46:15.074Z,100458.19
2019-05-30T22:48:41.967Z,100462.59
2019-05-30T22:51:08.748Z,100462.66
2019-05-30T22:53:35.439Z,100461.39
2019-05-30T22:56:02.109Z,100454.03
2019-05-30T22:58:29.077Z,100454.34
2019-05-30T23:00:56.200Z,100453.24
2019-05-30T23:03:23.084Z,100456.78
2019-05-30T23:05:51.118Z,100450.31
2019-05-30T23:08:18.588Z,100452.58
2019-05-30T23:10:45.623Z,100454.91
2019-05-30T23:13:13.763Z,100449.59
2019-05-30T23:15:40.635Z,100446.23
2019-05-30T23:18:07.426Z,100455.37
2019-05-30T23:20:34.203Z,100453.47
2019-05-30T23:23:00.809Z,100445.17
2019-05-30T23:25:27.606Z,100447.87
2019-05-30T23:27:54.325Z,100451.59
2019-05-30T23:30:21.802Z,100444.27
2019-05-30T23:32:48.498Z,100441.19
2019-05-30T23:35:15.371Z,100443.87
2019-05-30T23:37:42.152Z,100444.70
2019-05-30T23:40:09.323Z,100444.08
2019-05-30T23:42:36.052Z,100444.36
2019-05-30T23:45:02.950Z,100446.21
2019-05-30T23:47:29.736Z,100447.61
2019-05-30T23:49:56.515Z,100438.86
2019-05-30T23:52:23.210Z,100443.87
2019-05-30T23:54:50.073Z,100430.70
2019-05-30T23:57:16.872Z,100435.16
2019-05-30T23:59:43.645Z,100438.91
